Time;durP1;ratioP1;P1;durP2;ratioP2;P2;SDS_P1;SDS_P2;PMS_P1;PMS_P2;Temp;Humidity;BMP_temperature;BMP_pressure;BME280_temperature;BME280_humidity;BME280_pressure;Samples;Min_cycle;Max_cycle;Signal;HPM_P1;HPM_P2
2024/04/17 00:00:43;;;;;;;4.75;1.10;;;;;;;10.97;66.28;101331.72;5527276;25;19998;-41
2024/04/17 00:03:08;;;;;;;4.43;1.10;;;;;;;10.94;65.87;101329.91;5524778;25;20001;-41
2024/04/17 00:05:33;;;;;;;3.03;0.98;;;;;;;11.39;64.80;101331.59;5524635;25;20005;-41
2024/04/17 00:07:59;;;;;;;2.80;0.90;;;;;;;11.35;64.24;101329.78;5524739;25;20033;-41
2024/04/17 00:10:24;;;;;;;2.85;1.00;;;;;;;11.13;65.84;101338.97;5524831;25;19994;-41
2024/04/17 00:12:49;;;;;;;6.30;1.20;;;;;;;11.35;65.30;101346.31;5527814;25;20050;-42
2024/04/17 00:15:15;;;;;;;5.57;1.50;;;;;;;11.30;66.33;101336.66;5527636;25;20435;-42
2024/04/17 00:17:40;;;;;;;4.68;1.50;;;;;;;10.98;67.56;101343.88;5527921;25;20009;-43
2024/04/17 00:20:06;;;;;;;6.30;1.55;;;;;;;11.01;68.33;101346.56;5528557;25;20016;-42
2024/04/17 00:22:31;;;;;;;5.25;1.70;;;;;;;11.09;68.87;101344.97;5527554;25;20009;-42
2024/04/17 00:24:56;;;;;;;7.63;1.90;;;;;;;11.08;70.61;101343.22;5529173;25;20411;-41
2024/04/17 00:27:22;;;;;;;4.68;1.50;;;;;;;11.05;70.68;101340.53;5528514;25;19998;-42
2024/04/17 00:29:47;;;;;;;4.45;1.20;;;;;;;11.14;70.36;101339.84;5526972;25;20001;-41
2024/04/17 00:32:12;;;;;;;6.43;1.45;;;;;;;11.36;70.07;101335.03;5527981;25;20013;-42
2024/04/17 00:34:37;;;;;;;6.18;1.50;;;;;;;11.50;69.80;101334.38;5530520;25;20025;-42
2024/04/17 00:37:03;;;;;;;8.25;1.63;;;;;;;11.34;70.79;101333.25;5529050;25;20087;-41
2024/04/17 00:39:28;;;;;;;6.93;1.60;;;;;;;11.35;71.13;101332.38;5524972;25;20073;-42
2024/04/17 00:41:54;;;;;;;7.22;1.80;;;;;;;11.22;72.35;101326.06;5525946;25;20004;-40
2024/04/17 00:44:19;;;;;;;3.67;1.40;;;;;;;11.23;72.29;101324.34;5524663;25;20012;-43
2024/04/17 00:46:44;;;;;;;4.47;1.65;;;;;;;11.31;72.08;101318.41;5524038;25;20009;-41
2024/04/17 00:49:10;;;;;;;3.58;1.50;;;;;;;11.19;73.16;101323.41;5524101;25;20373;-41
2024/04/17 00:51:37;;;;;;;5.30;1.40;;;;;;;11.24;73.16;101318.25;5523938;25;20033;-41
2024/04/17 00:54:04;;;;;;;6.05;1.60;;;;;;;11.21;73.50;101318.22;5523829;25;20543;-41
2024/04/17 00:56:30;;;;;;;5.40;1.55;;;;;;;11.37;72.80;101320.25;5523239;25;19997;-41
2024/04/17 00:58:57;;;;;;;5.78;1.55;;;;;;;11.19;73.77;101328.63;5524027;25;19997;-41
2024/04/17 01:01:22;;;;;;;5.05;1.55;;;;;;;11.47;72.67;101321.25;5524400;25;19997;-41
2024/04/17 01:03:47;;;;;;;8.40;1.50;;;;;;;11.23;74.20;101314.78;5525072;25;20078;-41
2024/04/17 01:06:12;;;;;;;3.88;1.80;;;;;;;11.38;73.72;101314.19;5524638;25;20408;-42
2024/04/17 01:08:38;;;;;;;7.35;1.50;;;;;;;11.33;73.94;101315.84;5526694;25;20021;-41
2024/04/17 01:11:03;;;;;;;7.50;1.38;;;;;;;11.31;73.72;101305.34;5527936;25;20013;-43
2024/04/17 01:13:29;;;;;;;11.75;1.55;;;;;;;11.13;74.48;101309.38;5527585;25;20008;-42
2024/04/17 01:15:58;;;;;;;5.32;1.48;;;;;;;11.44;73.85;101310.78;5523598;25;20455;-41
2024/04/17 01:18:24;;;;;;;5.35;1.50;;;;;;;11.52;73.58;101310.06;5523406;25;20921;-41
2024/04/17 01:20:49;;;;;;;7.75;1.40;;;;;;;11.39;74.24;101315.94;5524562;25;19998;-42
2024/04/17 01:23:15;;;;;;;4.15;1.30;;;;;;;11.32;73.67;101319.28;5531071;25;19997;-43
2024/04/17 01:25:40;;;;;;;4.32;1.20;;;;;;;11.34;73.78;101323.66;5531040;25;20058;-40
2024/04/17 01:28:05;;;;;;;3.90;1.05;;;;;;;10.93;74.35;101322.94;5529263;25;20002;-44
2024/04/17 01:30:31;;;;;;;6.18;0.90;;;;;;;10.60;75.58;101319.66;5527933;25;20007;-45
2024/04/17 01:32:56;;;;;;;2.25;1.00;;;;;;;11.05;73.81;101303.13;5528979;25;20095;-41
2024/04/17 01:35:21;;;;;;;4.18;1.10;;;;;;;10.99;74.08;101310.00;5527818;25;20150;-44
2024/04/17 01:37:47;;;;;;;6.18;1.08;;;;;;;11.12;73.40;101292.84;5528243;25;20082;-41
2024/04/17 01:40:12;;;;;;;6.05;0.98;;;;;;;11.03;73.37;101315.28;5524156;25;19993;-42
2024/04/17 01:42:37;;;;;;;4.75;1.20;;;;;;;11.06;73.49;101305.78;5525791;25;20009;-42
2024/04/17 01:45:03;;;;;;;4.43;1.10;;;;;;;10.91;73.79;101301.16;5524476;25;20001;-40
2024/04/17 01:47:28;;;;;;;6.38;1.00;;;;;;;11.04;73.68;101297.03;5523220;25;20041;-41
2024/04/17 01:49:56;;;;;;;4.75;1.02;;;;;;;11.21;73.03;101298.22;5523319;25;20009;-43
2024/04/17 01:52:22;;;;;;;6.50;1.33;;;;;;;10.96;74.04;101301.25;5522535;25;20001;-43
2024/04/17 01:54:47;;;;;;;8.15;1.40;;;;;;;10.88;74.73;101301.09;5522554;25;20388;-40
2024/04/17 01:57:12;;;;;;;5.47;1.10;;;;;;;11.04;74.27;101297.03;5522999;25;20328;-43
2024/04/17 01:59:37;;;;;;;3.53;1.00;;;;;;;11.16;73.01;101301.63;5521649;25;20588;-41
2024/04/17 02:02:03;;;;;;;4.60;1.20;;;;;;;11.08;73.02;101300.59;5524391;25;20077;-42
2024/04/17 02:04:28;;;;;;;5.88;1.30;;;;;;;11.16;72.74;101292.03;5522901;25;20001;-45
2024/04/17 02:06:54;;;;;;;11.88;1.45;;;;;;;11.17;72.56;101291.19;5522641;25;20001;-42
2024/04/17 02:09:19;;;;;;;5.90;1.30;;;;;;;11.14;73.60;101296.38;5522145;25;20447;-41
2024/04/17 02:11:44;;;;;;;11.10;1.63;;;;;;;10.86;74.51;101288.88;5522826;25;20005;-46
2024/04/17 02:14:10;;;;;;;8.25;1.60;;;;;;;10.72;75.25;101296.44;5522857;25;20394;-40
2024/04/17 02:16:35;;;;;;;7.45;1.30;;;;;;;11.15;74.12;101290.28;5522122;25;20339;-42
2024/04/17 02:19:00;;;;;;;8.43;1.35;;;;;;;11.13;74.09;101293.72;5522704;25;20078;-47
2024/04/17 02:21:26;;;;;;;11.32;1.50;;;;;;;11.08;74.73;101296.25;5522117;25;20001;-41
2024/04/17 02:23:51;;;;;;;9.65;1.48;;;;;;;11.18;74.04;101299.88;5522882;25;20005;-43
2024/04/17 02:26:16;;;;;;;7.85;1.80;;;;;;;10.94;75.46;101301.22;5521969;25;20339;-40
2024/04/17 02:28:41;;;;;;;10.40;1.90;;;;;;;11.23;74.28;101298.22;5522027;25;20001;-42
2024/04/17 02:31:07;;;;;;;6.25;1.70;;;;;;;11.13;74.20;101289.38;5523276;25;19993;-40
2024/04/17 02:33:33;;;;;;;10.70;2.15;;;;;;;11.22;73.50;101296.50;5522487;25;20008;-41
2024/04/17 02:35:59;;;;;;;8.82;1.48;;;;;;;11.15;73.78;101294.63;5521905;25;20012;-41
2024/04/17 02:38:24;;;;;;;11.40;1.73;;;;;;;11.23;73.29;101298.22;5521949;25;19997;-41
2024/04/17 02:40:49;;;;;;;10.27;1.60;;;;;;;11.15;73.09;101298.13;5522773;25;20347;-40
2024/04/17 02:43:14;;;;;;;11.95;2.00;;;;;;;11.06;73.64;101303.16;5522205;25;19997;-42
2024/04/17 02:45:40;;;;;;;11.13;1.83;;;;;;;10.98;73.20;101295.19;5521305;25;20012;-47
2024/04/17 02:48:05;;;;;;;11.93;2.05;;;;;;;10.81;73.25;101291.38;5521294;25;20082;-43
2024/04/17 02:50:31;;;;;;;15.57;3.17;;;;;;;10.77;73.19;101293.91;5521489;25;19997;-41
2024/04/17 02:52:57;;;;;;;11.20;1.67;;;;;;;10.60;73.59;101297.94;5521766;25;20009;-45
2024/04/17 02:55:23;;;;;;;10.48;1.92;;;;;;;10.52;73.44;101296.03;5520901;25;20008;-42
2024/04/17 02:57:48;;;;;;;13.57;1.77;;;;;;;10.35;73.65;101291.34;5522132;25;19997;-41
2024/04/17 03:00:17;;;;;;;15.05;2.30;;;;;;;10.38;73.63;101297.47;5522224;25;19997;-41
2024/04/17 03:02:42;;;;;;;11.77;1.90;;;;;;;10.40;73.05;101295.78;5522147;25;19998;-41
2024/04/17 03:05:08;;;;;;;10.07;1.70;;;;;;;10.63;72.79;101300.59;5521455;25;20008;-42
2024/04/17 03:07:33;;;;;;;14.75;1.80;;;;;;;10.60;72.37;101296.22;5520971;25;20013;-45
2024/04/17 03:09:58;;;;;;;14.18;1.60;;;;;;;10.45;72.15;101299.38;5519959;25;20463;-43
2024/04/17 03:12:24;;;;;;;12.88;2.22;;;;;;;10.50;71.63;101302.06;5520957;25;20137;-41
2024/04/17 03:14:49;;;;;;;12.07;1.98;;;;;;;10.45;71.35;101303.69;5521475;25;20089;-45
2024/04/17 03:17:14;;;;;;;10.90;1.80;;;;;;;10.52;71.20;101303.00;5521543;25;20014;-43
2024/04/17 03:19:40;;;;;;;11.50;1.60;;;;;;;10.30;71.33;101312.09;5521135;25;20452;-43
2024/04/17 03:22:05;;;;;;;10.35;1.80;;;;;;;10.36;70.60;101308.75;5521346;25;20340;-41
2024/04/17 03:24:31;;;;;;;9.82;1.67;;;;;;;10.42;70.33;101307.16;5521053;25;19998;-42
2024/04/17 03:26:56;;;;;;;12.95;2.22;;;;;;;10.17;70.40;101312.69;5521032;25;19997;-42
2024/04/17 03:29:21;;;;;;;12.27;1.83;;;;;;;10.10;70.03;101305.53;5520840;25;20001;-43
2024/04/17 03:31:47;;;;;;;11.65;1.60;;;;;;;10.24;70.00;101313.69;5521430;25;20001;-42
2024/04/17 03:34:12;;;;;;;11.15;1.60;;;;;;;10.00;69.73;101317.44;5521302;25;20020;-43
2024/04/17 03:36:37;;;;;;;12.95;1.80;;;;;;;10.10;69.47;101323.78;5520533;25;20523;-42
2024/04/17 03:39:03;;;;;;;10.60;1.55;;;;;;;10.14;68.75;101323.88;5520805;25;20005;-42
2024/04/17 03:41:28;;;;;;;12.13;1.83;;;;;;;10.23;68.35;101323.22;5520720;25;20010;-46
2024/04/17 03:43:53;;;;;;;11.05;1.83;;;;;;;10.12;68.22;101325.53;5526891;25;20522;-41
2024/04/17 03:46:19;;;;;;;12.68;2.08;;;;;;;10.13;68.05;101326.44;5525447;25;20057;-44
2024/04/17 03:48:44;;;;;;;10.02;1.83;;;;;;;10.18;67.98;101327.47;5522029;25;20001;-42
2024/04/17 03:51:09;;;;;;;11.48;1.67;;;;;;;9.97;68.06;101329.53;5521385;25;20340;-42
2024/04/17 03:53:34;;;;;;;12.65;2.15;;;;;;;10.00;67.17;101330.47;5527917;25;19998;-43
2024/04/17 03:56:00;;;;;;;16.65;2.10;;;;;;;10.02;66.74;101327.91;5528630;25;20037;-41
2024/04/17 03:58:25;;;;;;;14.18;1.83;;;;;;;10.07;66.93;101327.16;5525650;25;20077;-46
2024/04/17 04:00:51;;;;;;;12.55;2.05;;;;;;;10.30;66.77;101332.06;5561760;25;19998;-40
2024/04/17 04:03:16;;;;;;;12.90;2.03;;;;;;;10.35;66.06;101327.81;5529957;25;20002;-41
2024/04/17 04:05:44;;;;;;;12.40;1.90;;;;;;;10.51;65.51;101329.91;5523732;25;20012;-48
2024/04/17 04:08:10;;;;;;;7.72;1.63;;;;;;;10.64;64.82;101329.31;5524424;25;20722;-41
2024/04/17 04:10:35;;;;;;;10.65;1.83;;;;;;;10.45;65.85;101328.03;5524606;25;20004;-44
2024/04/17 04:13:01;;;;;;;10.32;1.60;;;;;;;10.41;66.11;101331.44;5524659;25;20013;-41
2024/04/17 04:15:26;;;;;;;10.70;1.92;;;;;;;10.55;65.14;101329.13;5525136;25;19997;-43
2024/04/17 04:17:51;;;;;;;11.27;2.17;;;;;;;10.28;66.28;101333.75;5525142;25;19993;-47
2024/04/17 04:20:17;;;;;;;13.68;1.80;;;;;;;10.40;65.91;101327.06;5525299;25;20020;-42
2024/04/17 04:22:42;;;;;;;11.57;2.03;;;;;;;10.06;66.08;101332.38;5525264;25;20072;-43
2024/04/17 04:25:07;;;;;;;12.35;2.00;;;;;;;10.46;65.35;101329.81;5524368;25;20002;-47
2024/04/17 04:27:33;;;;;;;9.07;1.83;;;;;;;10.31;65.34;101332.06;5523342;25;20028;-42
2024/04/17 04:29:58;;;;;;;10.90;1.95;;;;;;;10.42;65.30;101333.22;5524412;25;20347;-45
2024/04/17 04:32:24;;;;;;;6.60;1.55;;;;;;;10.64;64.21;101331.03;5523848;25;20005;-42
2024/04/17 04:34:49;;;;;;;15.43;2.00;;;;;;;10.71;63.62;101325.97;5523644;25;20006;-41
2024/04/17 04:37:15;;;;;;;12.52;2.05;;;;;;;10.54;64.09;101327.38;5523948;25;20073;-42
2024/04/17 04:39:40;;;;;;;5.40;1.42;;;;;;;10.73;63.18;101331.22;5525688;25;20009;-42
2024/04/17 04:42:07;;;;;;;10.90;1.63;;;;;;;10.70;63.54;101336.38;5529583;25;20030;-45
2024/04/17 04:44:32;;;;;;;14.25;1.70;;;;;;;10.54;63.49;101332.59;5529117;25;20050;-41
2024/04/17 04:47:01;;;;;;;10.85;1.75;;;;;;;10.40;64.05;101337.50;5523614;25;19998;-41
2024/04/17 04:49:26;;;;;;;10.48;1.73;;;;;;;10.65;63.06;101328.47;5523313;25;20008;-43
2024/04/17 04:51:52;;;;;;;6.78;1.52;;;;;;;10.79;63.00;101326.13;5523821;25;19997;-42
2024/04/17 04:54:17;;;;;;;9.40;1.73;;;;;;;10.79;63.40;101324.41;5523775;25;20009;-41
2024/04/17 04:56:43;;;;;;;8.93;1.80;;;;;;;10.70;63.46;101326.81;5522943;25;20009;-43
2024/04/17 04:59:08;;;;;;;9.10;1.48;;;;;;;10.65;64.09;101328.47;5523687;25;20752;-42
2024/04/17 05:01:33;;;;;;;9.65;1.52;;;;;;;10.27;64.44;101332.88;5523131;25;20001;-47
2024/04/17 05:03:59;;;;;;;11.82;1.55;;;;;;;10.62;63.80;101325.78;5523566;25;20376;-42
2024/04/17 05:06:24;;;;;;;11.52;1.75;;;;;;;10.82;63.16;101331.41;5522607;25;20012;-41
2024/04/17 05:08:49;;;;;;;9.07;1.52;;;;;;;10.78;63.37;101324.38;5523316;25;20008;-41
2024/04/17 05:11:15;;;;;;;8.93;1.50;;;;;;;10.81;62.94;101329.63;5522783;25;20009;-43
2024/04/17 05:13:40;;;;;;;6.25;1.63;;;;;;;10.90;62.60;101335.03;5526404;25;19997;-46
2024/04/17 05:16:06;;;;;;;7.75;1.65;;;;;;;11.07;62.27;101328.41;5528142;25;20008;-43
2024/04/17 05:18:31;;;;;;;11.27;1.52;;;;;;;11.02;62.44;101323.97;5526335;25;19997;-41
2024/04/17 05:20:56;;;;;;;7.50;1.70;;;;;;;10.93;62.60;101333.34;5523135;25;20009;-46
2024/04/17 05:23:22;;;;;;;7.47;1.70;;;;;;;11.08;62.34;101338.00;5523297;25;20437;-40
2024/04/17 05:25:47;;;;;;;11.25;1.58;;;;;;;11.21;62.17;101329.56;5523617;25;20013;-41
2024/04/17 05:28:13;;;;;;;10.38;1.40;;;;;;;11.32;62.16;101330.63;5523805;25;20010;-44
2024/04/17 05:30:38;;;;;;;10.00;1.80;;;;;;;11.23;62.46;101330.44;5523496;25;20022;-42
2024/04/17 05:33:04;;;;;;;9.77;1.98;;;;;;;11.36;62.43;101331.53;5523176;25;20045;-41
2024/04/17 05:35:29;;;;;;;11.60;1.80;;;;;;;11.18;61.89;101328.59;5522781;25;19998;-47
2024/04/17 05:37:54;;;;;;;11.05;1.70;;;;;;;11.32;61.38;101324.50;5523043;25;20073;-43
2024/04/17 05:40:19;;;;;;;15.65;1.95;;;;;;;11.40;61.26;101323.78;5522822;25;20344;-41
2024/04/17 05:42:45;;;;;;;9.68;2.00;;;;;;;11.60;60.44;101321.50;5523926;25;20009;-41
2024/04/17 05:45:10;;;;;;;14.60;1.60;;;;;;;11.56;61.25;101322.31;5524353;25;20001;-42
2024/04/17 05:47:36;;;;;;;10.70;2.15;;;;;;;11.67;60.25;101320.75;5526138;25;20401;-43
2024/04/17 05:50:01;;;;;;;7.55;1.70;;;;;;;11.57;60.84;101323.19;5527127;25;20009;-42
2024/04/17 05:52:26;;;;;;;9.85;1.60;;;;;;;11.47;61.36;101319.53;5526308;25;20001;-42
2024/04/17 05:54:52;;;;;;;7.88;1.52;;;;;;;11.67;61.23;101320.75;5527353;25;20006;-45
2024/04/17 05:57:17;;;;;;;10.00;1.70;;;;;;;11.76;61.04;101317.44;5525053;25;20008;-41
2024/04/17 05:59:42;;;;;;;10.52;1.95;;;;;;;11.43;61.06;101324.69;5523762;25;19998;-42
2024/04/17 06:02:08;;;;;;;6.50;1.38;;;;;;;11.50;61.25;101319.59;5524040;25;20001;-43
2024/04/17 06:04:34;;;;;;;10.35;1.70;;;;;;;11.66;61.14;101323.31;5522544;25;19997;-41
2024/04/17 06:06:59;;;;;;;10.60;1.50;;;;;;;11.87;61.22;101328.94;5522793;25;19994;-41
2024/04/17 06:09:24;;;;;;;10.85;1.60;;;;;;;12.32;59.31;101323.47;5522276;25;20001;-47
2024/04/17 06:11:50;;;;;;;10.45;1.50;;;;;;;12.95;57.40;101320.75;5522277;25;20077;-43
2024/04/17 06:14:15;;;;;;;10.93;1.50;;;;;;;13.33;54.38;101320.31;5522328;25;20508;-43
2024/04/17 06:16:43;;;;;;;9.27;1.30;;;;;;;13.87;53.13;101308.50;5524512;25;20007;-46
2024/04/17 06:19:08;;;;;;;10.38;1.58;;;;;;;14.51;50.81;101312.41;5525043;25;19997;-41
2024/04/17 06:21:34;;;;;;;8.85;1.60;;;;;;;14.60;50.58;101307.19;5523750;25;20012;-41
2024/04/17 06:23:59;;;;;;;9.13;1.70;;;;;;;14.87;48.08;101309.03;5524199;25;20531;-46
2024/04/17 06:26:24;;;;;;;11.00;1.20;;;;;;;15.30;48.19;101303.00;5523415;25;20012;-42
2024/04/17 06:28:50;;;;;;;8.25;1.40;;;;;;;16.26;47.59;101299.41;5520798;26;20069;-42
2024/04/17 06:31:15;;;;;;;8.93;1.73;;;;;;;16.71;44.64;101301.03;5522263;25;20001;-48
2024/04/17 06:33:41;;;;;;;6.10;1.17;;;;;;;16.86;44.06;101304.44;5522409;25;19993;-41
2024/04/17 06:36:06;;;;;;;8.80;1.48;;;;;;;15.12;46.04;101304.72;5523476;25;19997;-43
2024/04/17 06:38:32;;;;;;;6.35;1.20;;;;;;;15.67;45.16;101306.53;5522326;25;20002;-43
2024/04/17 06:40:57;;;;;;;4.85;1.35;;;;;;;15.54;46.12;101322.31;5523122;25;20016;-40
2024/04/17 06:43:23;;;;;;;4.82;1.15;;;;;;;15.03;48.16;101321.31;5522977;25;20016;-43
2024/04/17 06:45:48;;;;;;;10.05;1.48;;;;;;;14.62;49.67;101310.72;5520843;26;20550;-43
2024/04/17 06:48:14;;;;;;;6.93;1.10;;;;;;;13.94;49.01;101324.28;5523462;25;20353;-43
2024/04/17 06:50:39;;;;;;;4.47;1.30;;;;;;;13.61;51.71;101324.03;5522450;25;20002;-44
2024/04/17 06:53:05;;;;;;;7.40;1.55;;;;;;;13.46;52.63;101327.41;5523214;25;20016;-45
2024/04/17 06:55:30;;;;;;;6.60;1.60;;;;;;;13.09;53.71;101333.13;5522897;25;19997;-41
2024/04/17 06:57:55;;;;;;;6.13;1.60;;;;;;;12.85;54.78;101337.25;5523053;25;20008;-41
2024/04/17 07:00:21;;;;;;;5.45;1.40;;;;;;;12.46;56.66;101336.72;5524244;25;19993;-43
2024/04/17 07:02:46;;;;;;;4.47;1.30;;;;;;;11.94;57.31;101346.47;5528215;25;20065;-42
2024/04/17 07:05:12;;;;;;;8.20;1.45;;;;;;;11.84;59.29;101354.13;5529512;25;20046;-41
2024/04/17 07:07:37;;;;;;;6.57;1.67;;;;;;;11.55;59.52;101372.78;5525228;25;19998;-42
2024/04/17 07:10:03;;;;;;;8.77;1.70;;;;;;;11.81;59.31;101370.66;5523240;25;20005;-41
2024/04/17 07:12:28;;;;;;;6.88;1.42;;;;;;;11.48;59.46;101370.03;5523445;25;20617;-43
2024/04/17 07:14:54;;;;;;;3.75;1.33;;;;;;;11.43;59.73;101367.34;5529897;25;19994;-44
2024/04/17 07:17:20;;;;;;;3.80;1.48;;;;;;;11.54;59.24;101360.56;5529128;25;20002;-43
2024/04/17 07:19:45;;;;;;;3.13;1.30;;;;;;;11.69;59.24;101349.50;5528480;25;20073;-49
2024/04/17 07:22:10;;;;;;;4.63;1.25;;;;;;;11.90;58.68;101346.38;5522494;25;20101;-42
2024/04/17 07:24:36;;;;;;;3.72;1.40;;;;;;;12.07;59.12;101342.31;5523517;25;19994;-44
2024/04/17 07:27:02;;;;;;;4.50;1.60;;;;;;;12.20;59.38;101341.59;5528010;25;20436;-43
2024/04/17 07:29:27;;;;;;;6.60;1.23;;;;;;;12.30;59.70;101340.00;5527813;25;20005;-41
2024/04/17 07:31:53;;;;;;;5.57;1.40;;;;;;;12.38;59.83;101333.16;5523610;25;20088;-43
2024/04/17 07:34:18;;;;;;;3.63;1.30;;;;;;;12.62;59.40;101328.25;5526945;25;20013;-44
2024/04/17 07:36:46;;;;;;;6.75;1.75;;;;;;;12.58;60.50;101323.81;5525340;25;20002;-42
2024/04/17 07:39:11;;;;;;;6.82;1.70;;;;;;;12.67;61.20;101328.28;5526248;25;19997;-42
2024/04/17 07:41:36;;;;;;;4.28;1.50;;;;;;;13.07;59.53;101324.38;5529420;25;20047;-49
2024/04/17 07:44:02;;;;;;;5.32;1.55;;;;;;;13.14;58.49;101323.59;5531175;25;20044;-42
2024/04/17 07:46:27;;;;;;;4.30;1.42;;;;;;;13.03;58.91;101318.25;5527493;25;20436;-41
2024/04/17 07:48:52;;;;;;;7.72;1.73;;;;;;;12.71;58.44;101312.63;5528790;25;20013;-45
2024/04/17 07:51:17;;;;;;;5.80;1.60;;;;;;;13.06;59.26;101327.84;5531603;25;20063;-44
2024/04/17 07:53:43;;;;;;;5.07;1.73;;;;;;;13.46;57.66;101327.41;5532814;25;20077;-47
2024/04/17 07:56:08;;;;;;;4.40;1.20;;;;;;;13.42;54.40;101323.00;5529768;25;20001;-48
2024/04/17 07:58:33;;;;;;;3.47;1.23;;;;;;;13.14;54.78;101323.59;5525463;25;20002;-45
2024/04/17 08:00:59;;;;;;;3.40;1.20;;;;;;;13.54;52.12;101319.63;5526540;25;20562;-44
2024/04/17 08:03:24;;;;;;;6.35;1.30;;;;;;;14.11;52.46;101311.28;5525880;25;19994;-42
2024/04/17 08:05:51;;;;;;;4.97;1.48;;;;;;;14.28;51.48;101309.63;5526960;25;20087;-42
2024/04/17 08:08:17;;;;;;;4.53;1.20;;;;;;;14.30;50.70;101310.53;5526370;25;20011;-41
2024/04/17 08:10:43;;;;;;;8.27;1.60;;;;;;;14.79;50.07;101308.13;5527400;25;19999;-42
2024/04/17 08:13:11;;;;;;;7.53;1.30;;;;;;;14.74;46.27;101296.75;5528236;25;20520;-45
2024/04/17 08:15:39;;;;;;;5.70;1.20;;;;;;;14.82;49.49;101301.13;5527025;25;20030;-45
2024/04/17 08:18:05;;;;;;;4.72;1.20;;;;;;;15.03;47.92;101301.19;5525564;25;19998;-43
2024/04/17 08:20:31;;;;;;;4.05;1.30;;;;;;;14.85;48.90;101306.41;5524513;25;20077;-41
2024/04/17 08:22:56;;;;;;;6.40;1.40;;;;;;;14.75;47.80;101301.13;5524697;25;19997;-43
2024/04/17 08:25:21;;;;;;;6.57;1.10;;;;;;;14.88;47.55;101308.19;5523925;25;20001;-43
2024/04/17 08:27:47;;;;;;;5.70;1.30;;;;;;;14.80;48.11;101308.16;5523947;25;20012;-44
2024/04/17 08:30:12;;;;;;;7.25;1.27;;;;;;;14.58;48.40;101304.56;5523265;25;20751;-47
2024/04/17 08:32:41;;;;;;;6.45;1.40;;;;;;;14.49;49.23;101304.53;5524446;25;20026;-45
2024/04/17 08:35:07;;;;;;;7.35;1.50;;;;;;;14.19;50.03;101294.75;5524197;25;20056;-43
2024/04/17 08:37:32;;;;;;;7.70;1.75;;;;;;;14.16;49.60;101297.34;5523756;25;20002;-43
2024/04/17 08:39:57;;;;;;;4.95;1.30;;;;;;;14.11;49.11;101293.81;5524094;25;20016;-43
2024/04/17 08:42:25;;;;;;;4.35;1.20;;;;;;;13.84;49.34;101295.41;5523920;25;20012;-46
2024/04/17 08:44:51;;;;;;;3.63;1.17;;;;;;;14.03;48.95;101294.63;5522532;26;20350;-47
2024/04/17 08:47:20;;;;;;;3.75;1.13;;;;;;;14.32;50.85;101285.19;5553173;25;19994;-44
2024/04/17 08:49:46;;;;;;;4.72;1.20;;;;;;;14.54;50.26;101281.81;5524734;25;19997;-47
2024/04/17 08:52:12;;;;;;;4.68;1.13;;;;;;;14.70;50.72;101274.84;5523947;25;20029;-44
2024/04/17 08:54:40;;;;;;;8.40;1.40;;;;;;;15.08;50.52;101271.44;5522998;25;20344;-44
2024/04/17 08:57:06;;;;;;;5.38;1.33;;;;;;;15.03;46.70;101271.44;5523051;25;20012;-45
2024/04/17 08:59:31;;;;;;;7.47;1.40;;;;;;;15.40;47.93;101260.09;5523464;25;20077;-47
2024/04/17 09:02:02;;;;;;;4.80;1.30;;;;;;;14.86;46.48;101265.28;5524147;25;19997;-40
2024/04/17 09:04:28;;;;;;;5.78;1.30;;;;;;;15.26;47.04;101272.31;5523865;25;20095;-42
2024/04/17 09:06:54;;;;;;;6.13;1.45;;;;;;;14.93;49.68;101269.69;5523374;25;20009;-41
2024/04/17 09:09:21;;;;;;;9.07;1.65;;;;;;;14.62;50.93;101289.72;5523495;25;20009;-40
2024/04/17 09:11:47;;;;;;;6.50;1.50;;;;;;;13.14;53.12;101314.00;5526555;25;20008;-43
2024/04/17 09:14:12;;;;;;;6.85;1.60;;;;;;;11.52;57.61;101332.69;5528204;25;20351;-45
2024/04/17 09:16:39;;;;;;;7.45;1.63;;;;;;;10.61;62.31;101331.88;5524000;25;20008;-44
2024/04/17 09:19:06;;;;;;;6.75;1.90;;;;;;;10.27;62.99;101335.47;5523740;25;20114;-41
2024/04/17 09:21:36;;;;;;;6.72;1.73;;;;;;;10.50;62.23;101326.41;5522399;25;20326;-41
2024/04/17 09:24:02;;;;;;;6.38;1.88;;;;;;;10.48;63.81;101322.91;5523331;25;20001;-41
2024/04/17 09:26:29;;;;;;;6.63;2.03;;;;;;;10.38;64.21;101325.28;5522326;25;20041;-41
2024/04/17 09:28:56;;;;;;;4.75;2.10;;;;;;;10.24;65.67;101317.19;5523936;25;20001;-42
2024/04/17 09:31:22;;;;;;;4.75;1.70;;;;;;;10.20;66.67;101317.94;5523551;25;20016;-41
2024/04/17 09:33:47;;;;;;;6.47;2.08;;;;;;;10.13;67.22;101316.00;5522926;25;20001;-44
2024/04/17 09:36:13;;;;;;;4.95;2.00;;;;;;;10.45;67.15;101312.41;5522968;25;20012;-42
2024/04/17 09:38:39;;;;;;;7.55;2.38;;;;;;;10.35;68.33;101307.84;5522269;25;20111;-41
2024/04/17 09:41:05;;;;;;;5.05;2.25;;;;;;;10.51;68.85;101306.44;5523025;25;19997;-42
2024/04/17 09:43:30;;;;;;;6.57;2.60;;;;;;;10.69;68.96;101309.41;5522798;25;20009;-44
2024/04/17 09:46:00;;;;;;;10.65;3.03;;;;;;;10.82;69.36;101306.19;5523517;25;20454;-44
2024/04/17 09:48:30;;;;;;;7.15;2.78;;;;;;;11.03;69.47;101304.84;5522539;25;20079;-41
2024/04/17 09:51:05;;;;;;;6.45;3.00;;;;;;;11.41;69.23;101301.16;5522788;25;20008;-43
2024/04/17 09:53:33;;;;;;;8.60;2.95;;;;;;;11.66;69.57;101305.03;5522590;25;20025;-42
2024/04/17 09:55:59;;;;;;;8.13;2.58;;;;;;;11.96;69.42;101307.28;5522108;25;19997;-43
2024/04/17 09:58:32;;;;;;;8.20;2.78;;;;;;;12.27;69.20;101300.75;5522854;25;19997;-41
2024/04/17 10:01:01;;;;;;;6.13;2.60;;;;;;;12.45;67.62;101303.59;5523183;25;20008;-41
2024/04/17 10:03:30;;;;;;;7.78;2.80;;;;;;;12.65;66.77;101302.09;5522849;25;19994;-46
2024/04/17 10:05:57;;;;;;;9.35;2.40;;;;;;;13.06;66.64;101299.03;5522187;25;20516;-43
2024/04/17 10:08:23;;;;;;;8.23;2.55;;;;;;;13.09;65.47;101302.59;5522414;25;20332;-43
2024/04/17 10:10:50;;;;;;;9.93;2.75;;;;;;;13.04;65.78;101308.66;5522970;25;20000;-45
2024/04/17 10:13:16;;;;;;;7.97;2.72;;;;;;;13.25;66.01;101311.50;5522839;25;20004;-43
2024/04/17 10:15:42;;;;;;;8.93;2.78;;;;;;;13.26;65.94;101316.75;5521692;25;20009;-43
2024/04/17 10:18:07;;;;;;;6.97;2.65;;;;;;;13.71;65.62;101305.78;5522624;25;19998;-47
2024/04/17 10:20:32;;;;;;;6.75;3.00;;;;;;;13.41;65.58;101318.66;5522024;25;20006;-42
2024/04/17 10:23:16;;;;;;;8.25;2.60;;;;;;;13.07;65.96;101324.38;5522392;25;20033;-43
2024/04/17 10:25:58;;;;;;;8.38;2.83;;;;;;;13.81;64.04;101323.31;5521349;25;20465;-41
2024/04/17 10:28:27;;;;;;;6.20;2.63;;;;;;;14.16;62.99;101333.16;5521350;25;20001;-41
2024/04/17 10:30:56;;;;;;;5.88;2.50;;;;;;;14.49;60.96;101324.63;5522576;25;20033;-41
2024/04/17 10:33:40;;;;;;;6.88;2.30;;;;;;;14.25;59.67;101324.47;5522234;25;20487;-44
2024/04/17 10:36:06;;;;;;;7.20;1.92;;;;;;;13.28;58.54;101325.50;5522465;25;19997;-42
2024/04/17 10:38:32;;;;;;;5.28;2.05;;;;;;;12.76;61.84;101324.03;5522098;25;19997;-45
2024/04/17 10:40:59;;;;;;;5.88;2.10;;;;;;;12.48;61.13;101317.59;5522873;25;20008;-42
2024/04/17 10:43:26;;;;;;;6.07;2.50;;;;;;;12.31;65.66;101326.97;5523745;25;20064;-44
2024/04/17 10:46:10;;;;;;;6.28;1.92;;;;;;;12.28;63.50;101334.75;5525405;25;20012;-43
2024/04/17 10:48:43;;;;;;;6.18;1.98;;;;;;;11.79;64.10;101333.16;5525825;25;20073;-43
2024/04/17 10:51:09;;;;;;;7.50;1.60;;;;;;;11.36;66.46;101336.75;5525087;25;19997;-47
2024/04/17 10:53:36;;;;;;;4.45;1.63;;;;;;;10.89;68.33;101344.59;5525403;25;20436;-42
2024/04/17 10:56:04;;;;;;;3.92;1.50;;;;;;;11.11;69.91;101352.81;5525635;25;20017;-41
2024/04/17 10:58:32;;;;;;;5.05;1.55;;;;;;;10.42;71.68;101350.56;5521501;25;19997;-42
2024/04/17 11:01:01;;;;;;;5.45;1.60;;;;;;;11.00;70.83;101355.22;5524941;25;20413;-45
2024/04/17 11:03:26;;;;;;;5.20;1.20;;;;;;;10.27;71.27;101351.09;5522629;25;20010;-41
2024/04/17 11:05:53;;;;;;;3.95;1.38;;;;;;;10.81;70.87;101351.38;5522286;25;20087;-41
2024/04/17 11:08:18;;;;;;;2.85;1.40;;;;;;;10.68;69.66;101354.59;5523150;25;20049;-42
2024/04/17 11:10:44;;;;;;;3.20;1.40;;;;;;;10.56;70.11;101365.63;5525810;25;19993;-42
2024/04/17 11:13:17;;;;;;;4.50;1.50;;;;;;;11.50;68.30;101360.50;5525395;25;20012;-43
2024/04/17 11:15:43;;;;;;;3.10;1.30;;;;;;;11.45;66.87;101356.94;5524578;25;20102;-42